sensor_id;sensor_type;location;lat;lon;timestamp;P1;durP1;ratioP1;P2;durP2;ratioP2
53519;SDS011;39397;53.204;5.778;2022-10-16T00:01:45;6.70;;;1.08;;
53519;SDS011;39397;53.204;5.778;2022-10-16T00:04:11;11.32;;;1.30;;
53519;SDS011;39397;53.204;5.778;2022-10-16T00:06:37;4.70;;;1.00;;
53519;SDS011;39397;53.204;5.778;2022-10-16T00:09:04;6.32;;;1.20;;
53519;SDS011;39397;53.204;5.778;2022-10-16T00:11:31;10.57;;;1.83;;
53519;SDS011;39397;53.204;5.778;2022-10-16T00:13:59;9.18;;;2.00;;
53519;SDS011;39397;53.204;5.778;2022-10-16T00:16:26;7.28;;;1.60;;
53519;SDS011;39397;53.204;5.778;2022-10-16T00:18:52;6.18;;;1.35;;
53519;SDS011;39397;53.204;5.778;2022-10-16T00:21:20;7.97;;;1.50;;
53519;SDS011;39397;53.204;5.778;2022-10-16T00:23:49;8.45;;;1.52;;
53519;SDS011;39397;53.204;5.778;2022-10-16T00:26:17;8.38;;;1.10;;
53519;SDS011;39397;53.204;5.778;2022-10-16T00:28:52;10.63;;;1.35;;
53519;SDS011;39397;53.204;5.778;2022-10-16T00:31:19;7.20;;;1.20;;
53519;SDS011;39397;53.204;5.778;2022-10-16T00:33:46;7.50;;;1.42;;
53519;SDS011;39397;53.204;5.778;2022-10-16T00:36:13;4.93;;;1.05;;
53519;SDS011;39397;53.204;5.778;2022-10-16T00:38:40;5.95;;;1.33;;
53519;SDS011;39397;53.204;5.778;2022-10-16T00:41:06;9.63;;;1.30;;
53519;SDS011;39397;53.204;5.778;2022-10-16T00:46:21;6.68;;;1.30;;
53519;SDS011;39397;53.204;5.778;2022-10-16T00:49:11;5.05;;;1.10;;
53519;SDS011;39397;53.204;5.778;2022-10-16T00:51:41;7.03;;;1.30;;
53519;SDS011;39397;53.204;5.778;2022-10-16T00:54:13;10.25;;;1.33;;
53519;SDS011;39397;53.204;5.778;2022-10-16T00:56:43;6.75;;;1.38;;
53519;SDS011;39397;53.204;5.778;2022-10-16T00:59:20;8.43;;;1.33;;
53519;SDS011;39397;53.204;5.778;2022-10-16T01:01:50;3.35;;;0.88;;
53519;SDS011;39397;53.204;5.778;2022-10-16T01:04:16;6.55;;;1.08;;
53519;SDS011;39397;53.204;5.778;2022-10-16T01:06:46;6.53;;;0.98;;
53519;SDS011;39397;53.204;5.778;2022-10-16T01:12:33;5.05;;;1.00;;
53519;SDS011;39397;53.204;5.778;2022-10-16T01:17:44;5.53;;;1.08;;
53519;SDS011;39397;53.204;5.778;2022-10-16T01:20:29;5.40;;;1.10;;
53519;SDS011;39397;53.204;5.778;2022-10-16T01:25:55;5.82;;;1.10;;
53519;SDS011;39397;53.204;5.778;2022-10-16T01:28:28;5.05;;;0.88;;
53519;SDS011;39397;53.204;5.778;2022-10-16T01:31:07;3.88;;;1.00;;
53519;SDS011;39397;53.204;5.778;2022-10-16T01:33:40;6.03;;;0.95;;
53519;SDS011;39397;53.204;5.778;2022-10-16T01:36:12;9.25;;;1.35;;
53519;SDS011;39397;53.204;5.778;2022-10-16T01:38:40;6.40;;;1.00;;
53519;SDS011;39397;53.204;5.778;2022-10-16T01:42:06;5.75;;;1.10;;
53519;SDS011;39397;53.204;5.778;2022-10-16T01:44:02;7.65;;;1.10;;
53519;SDS011;39397;53.204;5.778;2022-10-16T01:46:32;9.30;;;1.23;;
53519;SDS011;39397;53.204;5.778;2022-10-16T01:49:01;6.72;;;1.40;;
53519;SDS011;39397;53.204;5.778;2022-10-16T01:51:28;3.60;;;0.82;;
53519;SDS011;39397;53.204;5.778;2022-10-16T01:53:55;6.13;;;0.95;;
53519;SDS011;39397;53.204;5.778;2022-10-16T01:56:25;5.43;;;1.15;;
53519;SDS011;39397;53.204;5.778;2022-10-16T01:58:58;5.85;;;1.10;;
53519;SDS011;39397;53.204;5.778;2022-10-16T02:01:36;8.48;;;1.40;;
53519;SDS011;39397;53.204;5.778;2022-10-16T02:06:45;4.93;;;1.30;;
53519;SDS011;39397;53.204;5.778;2022-10-16T02:09:11;4.53;;;1.13;;
53519;SDS011;39397;53.204;5.778;2022-10-16T02:11:36;3.85;;;1.33;;
53519;SDS011;39397;53.204;5.778;2022-10-16T02:14:03;6.13;;;1.50;;
53519;SDS011;39397;53.204;5.778;2022-10-16T02:16:41;4.10;;;1.58;;
53519;SDS011;39397;53.204;5.778;2022-10-16T02:19:09;7.90;;;2.25;;
53519;SDS011;39397;53.204;5.778;2022-10-16T02:21:40;6.70;;;1.85;;
53519;SDS011;39397;53.204;5.778;2022-10-16T02:31:40;5.18;;;1.52;;
53519;SDS011;39397;53.204;5.778;2022-10-16T02:34:08;5.57;;;1.73;;
53519;SDS011;39397;53.204;5.778;2022-10-16T02:36:37;10.10;;;1.83;;
53519;SDS011;39397;53.204;5.778;2022-10-16T02:39:04;6.45;;;2.25;;
53519;SDS011;39397;53.204;5.778;2022-10-16T02:41:31;8.07;;;1.98;;
53519;SDS011;39397;53.204;5.778;2022-10-16T02:43:57;7.82;;;2.70;;
53519;SDS011;39397;53.204;5.778;2022-10-16T02:46:23;4.03;;;1.73;;
53519;SDS011;39397;53.204;5.778;2022-10-16T02:48:49;6.18;;;1.67;;
53519;SDS011;39397;53.204;5.778;2022-10-16T02:51:14;5.15;;;1.75;;
53519;SDS011;39397;53.204;5.778;2022-10-16T02:53:40;7.18;;;1.83;;
53519;SDS011;39397;53.204;5.778;2022-10-16T02:56:06;4.35;;;1.52;;
53519;SDS011;39397;53.204;5.778;2022-10-16T02:58:32;4.90;;;1.67;;
53519;SDS011;39397;53.204;5.778;2022-10-16T03:00:59;3.58;;;1.60;;
53519;SDS011;39397;53.204;5.778;2022-10-16T03:03:24;5.72;;;1.80;;
53519;SDS011;39397;53.204;5.778;2022-10-16T03:05:50;9.27;;;1.80;;
53519;SDS011;39397;53.204;5.778;2022-10-16T03:08:16;4.28;;;1.50;;
53519;SDS011;39397;53.204;5.778;2022-10-16T03:10:42;5.22;;;1.55;;
53519;SDS011;39397;53.204;5.778;2022-10-16T03:13:08;6.85;;;2.20;;
53519;SDS011;39397;53.204;5.778;2022-10-16T03:15:33;6.47;;;1.90;;
53519;SDS011;39397;53.204;5.778;2022-10-16T03:17:59;5.85;;;1.98;;
53519;SDS011;39397;53.204;5.778;2022-10-16T03:20:26;4.15;;;1.50;;
53519;SDS011;39397;53.204;5.778;2022-10-16T03:22:51;6.57;;;1.52;;
53519;SDS011;39397;53.204;5.778;2022-10-16T03:25:17;4.85;;;1.38;;
53519;SDS011;39397;53.204;5.778;2022-10-16T03:27:43;3.63;;;1.30;;
53519;SDS011;39397;53.204;5.778;2022-10-16T03:30:09;6.00;;;1.70;;
53519;SDS011;39397;53.204;5.778;2022-10-16T03:32:35;6.68;;;1.63;;
53519;SDS011;39397;53.204;5.778;2022-10-16T03:35:00;5.47;;;1.40;;
53519;SDS011;39397;53.204;5.778;2022-10-16T03:37:26;4.22;;;1.30;;
53519;SDS011;39397;53.204;5.778;2022-10-16T03:39:52;6.88;;;1.50;;
53519;SDS011;39397;53.204;5.778;2022-10-16T03:42:18;6.82;;;1.30;;
53519;SDS011;39397;53.204;5.778;2022-10-16T03:44:43;6.35;;;1.40;;
53519;SDS011;39397;53.204;5.778;2022-10-16T03:47:09;4.40;;;1.10;;
53519;SDS011;39397;53.204;5.778;2022-10-16T03:49:35;4.28;;;1.25;;
53519;SDS011;39397;53.204;5.778;2022-10-16T03:52:00;4.78;;;1.10;;
53519;SDS011;39397;53.204;5.778;2022-10-16T03:54:26;4.93;;;1.20;;
53519;SDS011;39397;53.204;5.778;2022-10-16T03:56:52;6.68;;;1.73;;
53519;SDS011;39397;53.204;5.778;2022-10-16T03:59:17;5.45;;;1.20;;
53519;SDS011;39397;53.204;5.778;2022-10-16T04:01:43;4.95;;;1.27;;
53519;SDS011;39397;53.204;5.778;2022-10-16T04:04:09;2.05;;;0.90;;
53519;SDS011;39397;53.204;5.778;2022-10-16T04:06:34;5.65;;;1.30;;
53519;SDS011;39397;53.204;5.778;2022-10-16T04:09:00;3.83;;;1.10;;
53519;SDS011;39397;53.204;5.778;2022-10-16T04:11:26;6.03;;;1.50;;
53519;SDS011;39397;53.204;5.778;2022-10-16T04:13:52;5.68;;;1.70;;
53519;SDS011;39397;53.204;5.778;2022-10-16T04:16:18;5.78;;;1.70;;
53519;SDS011;39397;53.204;5.778;2022-10-16T04:18:43;4.38;;;1.60;;
53519;SDS011;39397;53.204;5.778;2022-10-16T04:21:09;5.80;;;1.98;;
53519;SDS011;39397;53.204;5.778;2022-10-16T04:23:35;4.30;;;1.50;;
53519;SDS011;39397;53.204;5.778;2022-10-16T04:26:00;8.13;;;2.30;;
53519;SDS011;39397;53.204;5.778;2022-10-16T04:28:26;7.82;;;2.00;;
53519;SDS011;39397;53.204;5.778;2022-10-16T04:30:52;6.75;;;2.58;;
53519;SDS011;39397;53.204;5.778;2022-10-16T04:33:18;4.82;;;1.52;;
53519;SDS011;39397;53.204;5.778;2022-10-16T04:35:44;8.52;;;1.80;;
53519;SDS011;39397;53.204;5.778;2022-10-16T04:38:09;7.32;;;1.83;;
53519;SDS011;39397;53.204;5.778;2022-10-16T04:40:35;5.18;;;1.40;;
53519;SDS011;39397;53.204;5.778;2022-10-16T04:43:02;10.25;;;1.83;;
53519;SDS011;39397;53.204;5.778;2022-10-16T04:45:28;6.90;;;1.35;;
53519;SDS011;39397;53.204;5.778;2022-10-16T04:47:56;7.35;;;1.42;;
53519;SDS011;39397;53.204;5.778;2022-10-16T04:50:23;4.50;;;1.50;;
53519;SDS011;39397;53.204;5.778;2022-10-16T04:52:48;4.97;;;1.30;;
53519;SDS011;39397;53.204;5.778;2022-10-16T04:55:14;9.90;;;1.70;;
53519;SDS011;39397;53.204;5.778;2022-10-16T04:57:40;4.25;;;1.20;;
53519;SDS011;39397;53.204;5.778;2022-10-16T05:00:06;5.55;;;1.30;;
53519;SDS011;39397;53.204;5.778;2022-10-16T05:02:33;5.70;;;1.17;;
53519;SDS011;39397;53.204;5.778;2022-10-16T05:04:59;4.22;;;1.63;;
53519;SDS011;39397;53.204;5.778;2022-10-16T05:07:24;4.30;;;1.33;;
53519;SDS011;39397;53.204;5.778;2022-10-16T05:09:50;4.50;;;1.10;;
53519;SDS011;39397;53.204;5.778;2022-10-16T05:12:16;3.75;;;1.10;;
53519;SDS011;39397;53.204;5.778;2022-10-16T05:14:41;6.45;;;1.55;;
53519;SDS011;39397;53.204;5.778;2022-10-16T05:17:07;6.75;;;1.30;;
53519;SDS011;39397;53.204;5.778;2022-10-16T05:19:33;5.88;;;1.33;;
53519;SDS011;39397;53.204;5.778;2022-10-16T05:21:58;6.40;;;1.30;;
53519;SDS011;39397;53.204;5.778;2022-10-16T05:24:24;7.60;;;1.58;;
53519;SDS011;39397;53.204;5.778;2022-10-16T05:26:50;6.00;;;2.00;;
53519;SDS011;39397;53.204;5.778;2022-10-16T05:29:16;6.85;;;2.03;;
53519;SDS011;39397;53.204;5.778;2022-10-16T05:31:42;8.65;;;2.38;;
53519;SDS011;39397;53.204;5.778;2022-10-16T05:34:07;5.90;;;2.28;;
53519;SDS011;39397;53.204;5.778;2022-10-16T05:36:33;10.50;;;2.50;;
53519;SDS011;39397;53.204;5.778;2022-10-16T05:38:59;6.90;;;2.80;;
53519;SDS011;39397;53.204;5.778;2022-10-16T05:41:24;7.85;;;2.70;;
53519;SDS011;39397;53.204;5.778;2022-10-16T05:43:51;7.82;;;2.35;;
53519;SDS011;39397;53.204;5.778;2022-10-16T05:46:18;9.02;;;3.17;;
53519;SDS011;39397;53.204;5.778;2022-10-16T05:48:44;11.50;;;3.08;;
53519;SDS011;39397;53.204;5.778;2022-10-16T05:51:10;10.30;;;3.25;;
53519;SDS011;39397;53.204;5.778;2022-10-16T05:53:38;6.78;;;2.75;;
53519;SDS011;39397;53.204;5.778;2022-10-16T05:56:05;6.88;;;3.20;;
53519;SDS011;39397;53.204;5.778;2022-10-16T05:58:33;6.03;;;2.75;;
53519;SDS011;39397;53.204;5.778;2022-10-16T06:01:07;7.60;;;2.78;;
53519;SDS011;39397;53.204;5.778;2022-10-16T06:03:35;7.75;;;3.05;;
53519;SDS011;39397;53.204;5.778;2022-10-16T06:06:08;7.57;;;2.97;;
53519;SDS011;39397;53.204;5.778;2022-10-16T06:08:34;5.20;;;2.38;;
53519;SDS011;39397;53.204;5.778;2022-10-16T06:11:01;6.13;;;2.75;;
53519;SDS011;39397;53.204;5.778;2022-10-16T06:13:28;8.15;;;2.47;;
53519;SDS011;39397;53.204;5.778;2022-10-16T06:15:56;5.78;;;2.47;;
53519;SDS011;39397;53.204;5.778;2022-10-16T06:18:23;4.45;;;2.05;;
53519;SDS011;39397;53.204;5.778;2022-10-16T06:20:49;7.78;;;2.63;;
53519;SDS011;39397;53.204;5.778;2022-10-16T06:23:15;6.28;;;2.60;;
53519;SDS011;39397;53.204;5.778;2022-10-16T06:25:40;7.35;;;2.40;;
53519;SDS011;39397;53.204;5.778;2022-10-16T06:28:06;9.43;;;2.92;;
53519;SDS011;39397;53.204;5.778;2022-10-16T06:30:32;5.47;;;2.30;;
53519;SDS011;39397;53.204;5.778;2022-10-16T06:32:57;7.97;;;2.45;;
53519;SDS011;39397;53.204;5.778;2022-10-16T06:35:23;11.27;;;2.30;;
53519;SDS011;39397;53.204;5.778;2022-10-16T06:37:49;8.77;;;2.00;;
53519;SDS011;39397;53.204;5.778;2022-10-16T06:40:15;7.53;;;1.90;;
53519;SDS011;39397;53.204;5.778;2022-10-16T06:42:41;6.18;;;1.90;;
53519;SDS011;39397;53.204;5.778;2022-10-16T06:45:07;6.70;;;1.70;;
53519;SDS011;39397;53.204;5.778;2022-10-16T06:47:33;6.35;;;1.67;;
53519;SDS011;39397;53.204;5.778;2022-10-16T06:49:58;7.70;;;1.60;;
53519;SDS011;39397;53.204;5.778;2022-10-16T06:52:24;7.35;;;2.03;;
53519;SDS011;39397;53.204;5.778;2022-10-16T06:54:52;16.52;;;3.35;;
53519;SDS011;39397;53.204;5.778;2022-10-16T06:57:18;5.88;;;1.73;;
53519;SDS011;39397;53.204;5.778;2022-10-16T06:59:43;8.20;;;1.75;;
53519;SDS011;39397;53.204;5.778;2022-10-16T07:02:09;3.45;;;1.40;;
53519;SDS011;39397;53.204;5.778;2022-10-16T07:04:35;5.63;;;1.80;;
53519;SDS011;39397;53.204;5.778;2022-10-16T07:07:01;5.35;;;1.80;;
53519;SDS011;39397;53.204;5.778;2022-10-16T07:09:27;6.45;;;1.88;;
53519;SDS011;39397;53.204;5.778;2022-10-16T07:11:52;7.22;;;1.60;;
53519;SDS011;39397;53.204;5.778;2022-10-16T07:14:19;4.45;;;1.40;;
53519;SDS011;39397;53.204;5.778;2022-10-16T07:16:46;7.55;;;1.88;;
53519;SDS011;39397;53.204;5.778;2022-10-16T07:19:12;6.78;;;2.00;;
53519;SDS011;39397;53.204;5.778;2022-10-16T07:21:40;7.25;;;1.52;;
53519;SDS011;39397;53.204;5.778;2022-10-16T07:24:06;5.22;;;1.50;;
53519;SDS011;39397;53.204;5.778;2022-10-16T07:26:37;5.35;;;1.63;;
53519;SDS011;39397;53.204;5.778;2022-10-16T07:29:05;4.32;;;1.77;;
53519;SDS011;39397;53.204;5.778;2022-10-16T07:31:32;7.43;;;1.80;;
53519;SDS011;39397;53.204;5.778;2022-10-16T07:33:59;8.02;;;1.75;;
53519;SDS011;39397;53.204;5.778;2022-10-16T07:36:25;5.72;;;2.00;;
53519;SDS011;39397;53.204;5.778;2022-10-16T07:38:51;6.13;;;2.00;;
53519;SDS011;39397;53.204;5.778;2022-10-16T07:41:18;10.07;;;2.17;;
53519;SDS011;39397;53.204;5.778;2022-10-16T07:43:48;6.35;;;2.08;;
53519;SDS011;39397;53.204;5.778;2022-10-16T07:46:14;8.07;;;2.30;;
53519;SDS011;39397;53.204;5.778;2022-10-16T07:48:42;7.75;;;2.15;;
53519;SDS011;39397;53.204;5.778;2022-10-16T07:51:11;6.40;;;1.92;;
53519;SDS011;39397;53.204;5.778;2022-10-16T07:53:38;9.55;;;2.65;;
53519;SDS011;39397;53.204;5.778;2022-10-16T07:56:04;14.32;;;3.42;;
53519;SDS011;39397;53.204;5.778;2022-10-16T07:58:31;8.00;;;2.17;;
53519;SDS011;39397;53.204;5.778;2022-10-16T08:00:58;14.60;;;3.03;;
53519;SDS011;39397;53.204;5.778;2022-10-16T08:03:27;6.30;;;1.50;;
53519;SDS011;39397;53.204;5.778;2022-10-16T08:05:53;7.82;;;1.88;;
53519;SDS011;39397;53.204;5.778;2022-10-16T08:08:19;6.10;;;1.80;;
53519;SDS011;39397;53.204;5.778;2022-10-16T08:10:45;9.95;;;2.15;;
53519;SDS011;39397;53.204;5.778;2022-10-16T08:13:11;8.00;;;1.70;;
53519;SDS011;39397;53.204;5.778;2022-10-16T08:15:39;6.55;;;1.70;;
53519;SDS011;39397;53.204;5.778;2022-10-16T08:18:06;7.60;;;1.95;;
53519;SDS011;39397;53.204;5.778;2022-10-16T08:20:32;7.22;;;1.90;;
53519;SDS011;39397;53.204;5.778;2022-10-16T08:22:58;5.97;;;2.33;;
53519;SDS011;39397;53.204;5.778;2022-10-16T08:25:25;7.85;;;1.90;;
53519;SDS011;39397;53.204;5.778;2022-10-16T08:27:51;7.40;;;2.13;;
53519;SDS011;39397;53.204;5.778;2022-10-16T08:30:17;7.85;;;1.70;;
53519;SDS011;39397;53.204;5.778;2022-10-16T08:32:43;8.65;;;1.92;;
53519;SDS011;39397;53.204;5.778;2022-10-16T08:35:10;8.48;;;1.88;;
53519;SDS011;39397;53.204;5.778;2022-10-16T08:37:37;7.85;;;2.13;;
53519;SDS011;39397;53.204;5.778;2022-10-16T08:40:04;8.40;;;1.90;;
53519;SDS011;39397;53.204;5.778;2022-10-16T08:47:52;12.77;;;2.13;;
53519;SDS011;39397;53.204;5.778;2022-10-16T08:50:26;10.02;;;1.60;;
53519;SDS011;39397;53.204;5.778;2022-10-16T08:52:54;11.02;;;2.78;;
53519;SDS011;39397;53.204;5.778;2022-10-16T08:57:58;7.13;;;1.70;;
53519;SDS011;39397;53.204;5.778;2022-10-16T09:00:24;10.85;;;1.92;;
53519;SDS011;39397;53.204;5.778;2022-10-16T09:03:05;7.45;;;1.65;;
53519;SDS011;39397;53.204;5.778;2022-10-16T09:14:26;8.57;;;2.30;;
53519;SDS011;39397;53.204;5.778;2022-10-16T09:22:44;12.95;;;1.88;;
53519;SDS011;39397;53.204;5.778;2022-10-16T09:25:11;9.13;;;2.13;;
53519;SDS011;39397;53.204;5.778;2022-10-16T09:27:39;11.48;;;2.15;;
53519;SDS011;39397;53.204;5.778;2022-10-16T09:30:16;11.05;;;1.73;;
53519;SDS011;39397;53.204;5.778;2022-10-16T09:32:43;12.93;;;2.42;;
53519;SDS011;39397;53.204;5.778;2022-10-16T09:35:16;11.05;;;1.65;;
53519;SDS011;39397;53.204;5.778;2022-10-16T09:37:45;10.05;;;1.80;;
53519;SDS011;39397;53.204;5.778;2022-10-16T09:40:23;11.43;;;1.80;;
53519;SDS011;39397;53.204;5.778;2022-10-16T09:42:50;8.90;;;1.80;;
53519;SDS011;39397;53.204;5.778;2022-10-16T09:45:22;13.50;;;2.47;;
53519;SDS011;39397;53.204;5.778;2022-10-16T09:47:48;8.93;;;2.42;;
53519;SDS011;39397;53.204;5.778;2022-10-16T09:50:25;13.32;;;3.80;;
53519;SDS011;39397;53.204;5.778;2022-10-16T09:53:05;13.23;;;1.98;;
53519;SDS011;39397;53.204;5.778;2022-10-16T09:55:36;11.80;;;2.08;;
53519;SDS011;39397;53.204;5.778;2022-10-16T09:58:13;10.30;;;2.08;;
53519;SDS011;39397;53.204;5.778;2022-10-16T10:00:39;16.20;;;2.38;;
53519;SDS011;39397;53.204;5.778;2022-10-16T10:03:10;12.55;;;2.92;;
53519;SDS011;39397;53.204;5.778;2022-10-16T10:05:37;14.88;;;2.65;;
53519;SDS011;39397;53.204;5.778;2022-10-16T10:08:05;12.82;;;2.78;;
53519;SDS011;39397;53.204;5.778;2022-10-16T10:10:33;15.68;;;2.78;;
53519;SDS011;39397;53.204;5.778;2022-10-16T10:13:14;12.95;;;2.83;;
53519;SDS011;39397;53.204;5.778;2022-10-16T10:15:45;14.00;;;2.45;;
53519;SDS011;39397;53.204;5.778;2022-10-16T10:18:15;14.30;;;2.65;;
53519;SDS011;39397;53.204;5.778;2022-10-16T10:20:44;16.65;;;2.95;;
53519;SDS011;39397;53.204;5.778;2022-10-16T10:23:29;18.05;;;2.90;;
53519;SDS011;39397;53.204;5.778;2022-10-16T10:36:38;17.25;;;2.70;;
53519;SDS011;39397;53.204;5.778;2022-10-16T10:46:55;13.13;;;2.40;;
53519;SDS011;39397;53.204;5.778;2022-10-16T10:55:21;17.08;;;2.95;;
53519;SDS011;39397;53.204;5.778;2022-10-16T10:58:00;15.60;;;2.83;;
53519;SDS011;39397;53.204;5.778;2022-10-16T11:03:46;16.85;;;2.28;;
53519;SDS011;39397;53.204;5.778;2022-10-16T11:09:18;13.35;;;2.25;;
53519;SDS011;39397;53.204;5.778;2022-10-16T11:14:50;9.38;;;2.92;;
53519;SDS011;39397;53.204;5.778;2022-10-16T11:17:39;13.45;;;2.00;;
53519;SDS011;39397;53.204;5.778;2022-10-16T11:20:26;11.75;;;2.47;;
53519;SDS011;39397;53.204;5.778;2022-10-16T11:23:43;11.30;;;1.90;;
53519;SDS011;39397;53.204;5.778;2022-10-16T11:25:48;12.20;;;2.17;;
53519;SDS011;39397;53.204;5.778;2022-10-16T11:31:08;12.30;;;2.25;;
53519;SDS011;39397;53.204;5.778;2022-10-16T11:38:52;11.48;;;2.30;;
53519;SDS011;39397;53.204;5.778;2022-10-16T11:46:32;11.95;;;1.55;;
53519;SDS011;39397;53.204;5.778;2022-10-16T11:49:07;11.57;;;2.47;;
53519;SDS011;39397;53.204;5.778;2022-10-16T11:57:01;11.82;;;2.30;;
53519;SDS011;39397;53.204;5.778;2022-10-16T11:59:55;10.05;;;2.17;;
53519;SDS011;39397;53.204;5.778;2022-10-16T12:08:23;11.88;;;2.53;;
53519;SDS011;39397;53.204;5.778;2022-10-16T12:10:50;13.00;;;2.35;;
53519;SDS011;39397;53.204;5.778;2022-10-16T12:13:32;12.90;;;3.10;;
53519;SDS011;39397;53.204;5.778;2022-10-16T12:18:38;13.93;;;2.08;;
53519;SDS011;39397;53.204;5.778;2022-10-16T12:21:11;11.50;;;2.25;;
53519;SDS011;39397;53.204;5.778;2022-10-16T12:23:48;14.90;;;2.33;;
53519;SDS011;39397;53.204;5.778;2022-10-16T12:32:02;20.70;;;3.28;;
53519;SDS011;39397;53.204;5.778;2022-10-16T12:34:48;16.73;;;1.77;;
53519;SDS011;39397;53.204;5.778;2022-10-16T12:39:45;10.45;;;1.90;;
53519;SDS011;39397;53.204;5.778;2022-10-16T12:42:20;13.40;;;1.70;;
53519;SDS011;39397;53.204;5.778;2022-10-16T12:44:46;12.07;;;2.53;;
53519;SDS011;39397;53.204;5.778;2022-10-16T12:49:56;16.70;;;2.33;;
53519;SDS011;39397;53.204;5.778;2022-10-16T12:52:24;10.40;;;1.98;;
53519;SDS011;39397;53.204;5.778;2022-10-16T12:54:55;14.80;;;2.40;;
53519;SDS011;39397;53.204;5.778;2022-10-16T12:57:28;12.98;;;2.10;;
53519;SDS011;39397;53.204;5.778;2022-10-16T13:00:13;11.52;;;1.55;;
53519;SDS011;39397;53.204;5.778;2022-10-16T13:08:53;11.95;;;2.85;;
53519;SDS011;39397;53.204;5.778;2022-10-16T13:17:26;15.68;;;2.13;;
53519;SDS011;39397;53.204;5.778;2022-10-16T13:22:51;14.60;;;2.40;;
53519;SDS011;39397;53.204;5.778;2022-10-16T13:28:29;10.57;;;2.80;;
53519;SDS011;39397;53.204;5.778;2022-10-16T13:30:58;12.52;;;1.92;;
53519;SDS011;39397;53.204;5.778;2022-10-16T13:33:33;11.38;;;2.00;;
53519;SDS011;39397;53.204;5.778;2022-10-16T13:36:02;8.25;;;1.33;;
53519;SDS011;39397;53.204;5.778;2022-10-16T13:38:30;13.10;;;1.95;;
53519;SDS011;39397;53.204;5.778;2022-10-16T13:41:01;13.70;;;2.22;;
53519;SDS011;39397;53.204;5.778;2022-10-16T13:43:36;12.30;;;1.85;;
53519;SDS011;39397;53.204;5.778;2022-10-16T13:48:44;11.43;;;1.98;;
53519;SDS011;39397;53.204;5.778;2022-10-16T13:51:20;8.85;;;1.48;;
53519;SDS011;39397;53.204;5.778;2022-10-16T13:53:46;11.82;;;2.25;;
53519;SDS011;39397;53.204;5.778;2022-10-16T13:56:19;12.02;;;1.92;;
53519;SDS011;39397;53.204;5.778;2022-10-16T13:58:46;12.48;;;1.70;;
53519;SDS011;39397;53.204;5.778;2022-10-16T14:01:24;8.40;;;1.52;;
53519;SDS011;39397;53.204;5.778;2022-10-16T14:04:00;10.63;;;1.90;;
53519;SDS011;39397;53.204;5.778;2022-10-16T14:06:28;13.38;;;2.03;;
53519;SDS011;39397;53.204;5.778;2022-10-16T14:09:02;10.60;;;1.80;;
53519;SDS011;39397;53.204;5.778;2022-10-16T14:11:49;10.27;;;2.05;;
53519;SDS011;39397;53.204;5.778;2022-10-16T14:14:18;11.80;;;1.60;;
53519;SDS011;39397;53.204;5.778;2022-10-16T14:16:44;11.02;;;1.65;;
53519;SDS011;39397;53.204;5.778;2022-10-16T14:19:16;10.05;;;1.45;;
53519;SDS011;39397;53.204;5.778;2022-10-16T14:21:53;10.18;;;2.20;;
53519;SDS011;39397;53.204;5.778;2022-10-16T14:24:41;10.82;;;2.28;;
53519;SDS011;39397;53.204;5.778;2022-10-16T14:27:28;11.35;;;1.92;;
53519;SDS011;39397;53.204;5.778;2022-10-16T14:32:33;11.60;;;2.00;;
53519;SDS011;39397;53.204;5.778;2022-10-16T14:34:59;17.02;;;2.13;;
53519;SDS011;39397;53.204;5.778;2022-10-16T14:37:26;13.45;;;2.00;;
53519;SDS011;39397;53.204;5.778;2022-10-16T14:39:54;12.70;;;1.80;;
53519;SDS011;39397;53.204;5.778;2022-10-16T14:42:21;8.48;;;1.85;;
53519;SDS011;39397;53.204;5.778;2022-10-16T14:44:51;10.95;;;1.85;;
53519;SDS011;39397;53.204;5.778;2022-10-16T14:47:20;10.98;;;1.90;;
53519;SDS011;39397;53.204;5.778;2022-10-16T14:49:53;12.00;;;2.65;;
53519;SDS011;39397;53.204;5.778;2022-10-16T14:52:24;15.88;;;2.28;;
53519;SDS011;39397;53.204;5.778;2022-10-16T14:54:49;15.60;;;3.15;;
53519;SDS011;39397;53.204;5.778;2022-10-16T14:57:16;10.32;;;2.22;;
53519;SDS011;39397;53.204;5.778;2022-10-16T14:59:44;12.48;;;2.63;;
53519;SDS011;39397;53.204;5.778;2022-10-16T15:04:43;12.35;;;2.20;;
53519;SDS011;39397;53.204;5.778;2022-10-16T15:07:09;10.02;;;2.00;;
53519;SDS011;39397;53.204;5.778;2022-10-16T15:09:34;13.43;;;2.50;;
53519;SDS011;39397;53.204;5.778;2022-10-16T15:12:00;12.02;;;2.22;;
53519;SDS011;39397;53.204;5.778;2022-10-16T15:14:26;14.52;;;2.78;;
53519;SDS011;39397;53.204;5.778;2022-10-16T15:16:51;13.93;;;2.40;;
53519;SDS011;39397;53.204;5.778;2022-10-16T15:19:17;15.30;;;6.20;;
53519;SDS011;39397;53.204;5.778;2022-10-16T15:21:43;15.57;;;3.60;;
53519;SDS011;39397;53.204;5.778;2022-10-16T15:24:09;10.23;;;2.53;;
53519;SDS011;39397;53.204;5.778;2022-10-16T15:26:37;16.10;;;3.00;;
53519;SDS011;39397;53.204;5.778;2022-10-16T15:29:04;13.73;;;3.33;;
53519;SDS011;39397;53.204;5.778;2022-10-16T15:31:30;13.00;;;3.05;;
53519;SDS011;39397;53.204;5.778;2022-10-16T15:33:56;13.20;;;2.72;;
53519;SDS011;39397;53.204;5.778;2022-10-16T15:36:31;15.52;;;2.33;;
53519;SDS011;39397;53.204;5.778;2022-10-16T15:39:05;13.98;;;2.45;;
53519;SDS011;39397;53.204;5.778;2022-10-16T15:41:43;14.18;;;4.20;;
53519;SDS011;39397;53.204;5.778;2022-10-16T15:44:10;12.85;;;2.33;;
53519;SDS011;39397;53.204;5.778;2022-10-16T15:46:36;14.38;;;2.53;;
53519;SDS011;39397;53.204;5.778;2022-10-16T15:49:02;16.15;;;2.90;;
53519;SDS011;39397;53.204;5.778;2022-10-16T15:51:29;9.40;;;1.80;;
53519;SDS011;39397;53.204;5.778;2022-10-16T15:53:57;15.88;;;2.92;;
53519;SDS011;39397;53.204;5.778;2022-10-16T15:56:24;10.55;;;2.47;;
53519;SDS011;39397;53.204;5.778;2022-10-16T15:58:51;14.02;;;3.13;;
53519;SDS011;39397;53.204;5.778;2022-10-16T16:01:18;11.93;;;2.42;;
53519;SDS011;39397;53.204;5.778;2022-10-16T16:03:47;14.27;;;2.10;;
53519;SDS011;39397;53.204;5.778;2022-10-16T16:06:12;10.07;;;2.13;;
53519;SDS011;39397;53.204;5.778;2022-10-16T16:08:40;13.95;;;2.05;;
53519;SDS011;39397;53.204;5.778;2022-10-16T16:11:09;10.02;;;2.03;;
53519;SDS011;39397;53.204;5.778;2022-10-16T16:13:37;14.02;;;3.08;;
53519;SDS011;39397;53.204;5.778;2022-10-16T16:16:07;10.02;;;1.75;;
53519;SDS011;39397;53.204;5.778;2022-10-16T16:18:37;11.38;;;2.17;;
53519;SDS011;39397;53.204;5.778;2022-10-16T16:21:03;14.07;;;2.20;;
53519;SDS011;39397;53.204;5.778;2022-10-16T16:23:30;14.45;;;2.05;;
53519;SDS011;39397;53.204;5.778;2022-10-16T16:26:06;13.82;;;2.58;;
53519;SDS011;39397;53.204;5.778;2022-10-16T16:28:40;13.05;;;2.55;;
53519;SDS011;39397;53.204;5.778;2022-10-16T16:31:07;13.13;;;2.50;;
53519;SDS011;39397;53.204;5.778;2022-10-16T16:33:33;12.88;;;2.33;;
53519;SDS011;39397;53.204;5.778;2022-10-16T16:36:01;10.10;;;2.00;;
53519;SDS011;39397;53.204;5.778;2022-10-16T16:38:28;17.25;;;2.40;;
53519;SDS011;39397;53.204;5.778;2022-10-16T16:40:54;12.55;;;2.08;;
53519;SDS011;39397;53.204;5.778;2022-10-16T16:43:24;16.02;;;2.30;;
53519;SDS011;39397;53.204;5.778;2022-10-16T16:45:51;18.80;;;2.65;;
53519;SDS011;39397;53.204;5.778;2022-10-16T16:48:17;11.02;;;2.78;;
53519;SDS011;39397;53.204;5.778;2022-10-16T16:50:43;14.25;;;2.85;;
53519;SDS011;39397;53.204;5.778;2022-10-16T16:53:09;12.85;;;2.90;;
53519;SDS011;39397;53.204;5.778;2022-10-16T16:55:34;13.98;;;2.50;;
53519;SDS011;39397;53.204;5.778;2022-10-16T16:58:00;18.38;;;2.95;;
53519;SDS011;39397;53.204;5.778;2022-10-16T17:00:27;16.48;;;2.78;;
53519;SDS011;39397;53.204;5.778;2022-10-16T17:02:53;19.60;;;2.97;;
53519;SDS011;39397;53.204;5.778;2022-10-16T17:05:19;10.90;;;2.88;;
53519;SDS011;39397;53.204;5.778;2022-10-16T17:07:45;16.60;;;3.05;;
53519;SDS011;39397;53.204;5.778;2022-10-16T17:10:10;18.88;;;3.95;;
53519;SDS011;39397;53.204;5.778;2022-10-16T17:12:36;10.80;;;2.92;;